Airfield :
LOGIN :

Register | Disclaimer

   EN    FR    IT 

 










Legend :    VFR   Marginal VFR   IFR   Intensive IFR   Very Intensive IFR
Visi :
Ceiling :
>= 8 km
>= 3000ft
5 to 8 km
1000 to 3000 ft
1500m to 5 km
500 to 1000 ft
800 to 1500m
200 to 500 ft
< 800m
< 200 ft
Symbols :   Thunderstorms  Fog  Heavy snow  Heavy precipitations  Wind > 20 kt
SIGMETs :     Misc.  Thunderstorms  Icing  Turbulence  Mountain Waves  Volcanic Ashes






- Airport Elevation : 1375 ft
- IATA code : SCV


LRSV - Suceava Stefan cel Mare

CURRENT METAR :
  • 021230Z 18007KT 140V240 CAVOK 10/M10 Q1013

EXPIRED METARs :
  • 021200Z 20007KT 150V230 CAVOK 10/M09 Q1013
  • 021130Z 20010KT CAVOK 10/M10 Q1013
  • 021100Z AUTO VRB03KT 9999 NCD 09/M11 Q1014
  • 021030Z VRB03KT CAVOK 10/M11 Q1014
  • 021000Z 17005KT 120V210 CAVOK 09/M12 Q1014

TAF TAF LRSV
Valid from the 02 at 12:00 until the 02 at 21:00 UTC


021100Z 0212/0221 VRB04KT CAVOK
PROB30
TEMPO 0212/0214 16010KT



MET'MAP, your aeronautical weather chart ! - Copyright ORBIFLY December 2007 - Disclaimer

ORBIFLY MET'MAP TEAM :

Programming & Development : Alexandra Zaïnal
Concept & original design : Baudouin d'Aumeries
Assistance for programming : Marc-Olivier Méhu
Technical & hardware support : Manuel Goepfert

Contact : metmap@orbifly.com




SOURCES & CREDITS :

   NOAA